Flight Track Log - Related Links

Times and Time Zones

All times are in EST time to prevent confusion due to time zone crossing. See the N6ZQ flight status page for this flight to view local times or setup timezone preferences in your user account.


Time Position Orientation Groundspeed Altitude Reporting Facility
EST Latitude Longitude Course Direction KTS MPH feet Rate Location/Type
Sat 10:27:50 AM 30.2725 -82.5894 North 198 228 3,100  Level Jacksonville Center
Sat 10:28:51 AM 30.3161 -82.5822 North 171 197 4,500 1,300 Climbing Jacksonville Center
Sat 10:29:50 AM 30.3622 -82.5747 North 159 183 5,700 1,150 Climbing Jacksonville Center
Sat 10:30:51 AM 30.4061 -82.5675 North 159 183 6,800 1,091 Climbing Jacksonville Center
Sat 10:31:51 AM 30.4519 -82.5600 North 159 183 7,900 1,150 Climbing Jacksonville Center
Sat 10:32:51 AM 30.4936 -82.5550 North 159 183 9,100 900 Climbing Jacksonville Center
Sat 10:33:51 AM 30.5417 -82.5525 North 159 183 9,700 706 Climbing Jacksonville Center
Sat 10:34:50 AM 30.5897 -82.5522 360° North 159 183 10,500 750 Climbing Jacksonville Center
Sat 10:35:51 AM 30.6397 -82.5544 358° North 164 189 11,200 694 Climbing Jacksonville Center
Sat 10:36:51 AM 30.6900 -82.5567 358° North 169 194 11,900 403 Climbing Jacksonville Center
Sat 10:37:50 AM 30.7442 -82.5567 360° North 180 207 12,000 50 Climbing Jacksonville Center
Sat 10:38:51 AM 30.8047 -82.5564 360° North 197 227 12,000  Level Jacksonville Center
Sat 10:39:51 AM 30.8633 -82.5561 360° North 207 238 12,000  Level Jacksonville Center
Sat 10:40:50 AM 30.9239 -82.5558 360° North 212 244 12,000  Level Jacksonville Center
Sat 10:41:50 AM 30.9844 -82.5581 358° North 212 244 12,000  Level Jacksonville Center
Sat 10:42:50 AM 31.0428 -82.5581 360° North 217 250 12,000  Level Jacksonville Center
Sat 10:43:51 AM 31.1014 -82.5578 360° North 217 250 12,000 50 Level Jacksonville Center
Sat 10:44:51 AM 31.1597 -82.5575 360° North 212 244 12,100 300 Climbing Jacksonville Center
Sat 10:45:51 AM 31.2097 -82.5622 355° North 204 235 12,600 500 Climbing Jacksonville Center
Sat 10:46:51 AM 31.2661 -82.5572 North 193 222 13,100 500 Climbing Jacksonville Center
Sat 10:47:51 AM 31.3142 -82.5544 North 183 211 13,600 504 Climbing Jacksonville Center
Sat 10:48:50 AM 31.3642 -82.5397 14° North 178 205 14,100 500 Climbing Jacksonville Center
Sat 10:49:51 AM 31.4122 -82.5297 10° North 178 205 14,600 446 Climbing Jacksonville Center
Sat 10:50:51 AM 31.4625 -82.5222 North 178 205 15,000 200 Climbing Jacksonville Center
Sat 10:51:51 AM 31.5167 -82.5125 North 183 211 15,000  Level Jacksonville Center
Sat 10:52:51 AM 31.5667 -82.4831 27° Northeast 190 219 15,000  Level Jacksonville Center
Sat 10:53:50 AM 31.6186 -82.4411 35° Northeast 196 226 15,000  Level Jacksonville Center
Sat 10:54:50 AM 31.6708 -82.4019 33° Northeast 208 239 15,000  Level Jacksonville Center
Sat 10:55:51 AM 31.7208 -82.3600 36° Northeast 215 247 15,000  Level Jacksonville Center
Sat 10:56:51 AM 31.7789 -82.3133 34° Northeast 215 247 15,000  Level Jacksonville Center
Sat 10:57:51 AM 31.8289 -82.2714 35° Northeast 220 253 15,000  Level Jacksonville Center
Sat 10:58:51 AM 31.8747 -82.2319 36° Northeast 220 253 15,000  Level Jacksonville Center
Sat 10:59:50 AM 31.9328 -82.1875 33° Northeast 220 253 15,000 50 Level Jacksonville Center
Sat 11:00:51 AM 31.9847 -82.1456 34° Northeast 222 255 15,100 50 Climbing Jacksonville Center
Sat 11:01:51 AM 32.0306 -82.1083 35° Northeast 217 250 15,100 -50 Level Jacksonville Center
Sat 11:02:51 AM 32.0867 -82.0614 35° Northeast 217 250 15,000  Descending Jacksonville Center
Sat 11:03:51 AM 32.1344 -82.0242 33° Northeast 217 250 15,100  Climbing Jacksonville Center
Sat 11:04:51 AM 32.1925 -81.9769 35° Northeast 217 250 15,000  Descending Jacksonville Center
Sat 11:05:51 AM 32.2422 -81.9347 36° Northeast 217 250 15,100  Climbing Jacksonville Center
Sat 11:06:51 AM 32.2878 -81.8947 37° Northeast 217 250 15,000  Descending Jacksonville Center
Sat 11:07:51 AM 32.3419 -81.8525 33° Northeast 217 250 15,100 50 Climbing Jacksonville Center
Sat 11:08:51 AM 32.3936 -81.8100 35° Northeast 217 250 15,100 -50 Level Jacksonville Center
Sat 11:09:51 AM 32.4392 -81.7700 37° Northeast 217 250 15,000  Descending Jacksonville Center
Sat 11:10:51 AM 32.4953 -81.7250 34° Northeast 217 250 15,100 50 Climbing Jacksonville Center
Sat 11:11:51 AM 32.5469 -81.6825 35° Northeast 217 250 15,100  Level Jacksonville Center
Sat 11:12:51 AM 32.5947 -81.6447 34° Northeast 217 250 15,100  Level Jacksonville Center
Sat 11:13:51 AM 32.6506 -81.5972 36° Northeast 217 250 15,100 -50 Level Jacksonville Center
Sat 11:14:51 AM 32.6981 -81.5547 37° Northeast 217 250 15,000 -50 Descending Jacksonville Center
Sat 11:15:51 AM 32.7497 -81.5119 35° Northeast 217 250 15,000  Level Jacksonville Center
Sat 11:16:51 AM 32.7994 -81.4692 36° Northeast 217 250 15,000  Level Jacksonville Center
Sat 11:17:51 AM 32.8533 -81.4261 34° Northeast 217 250 15,000  Level Jacksonville Center
Sat 11:18:51 AM 32.9050 -81.3833 35° Northeast 217 250 15,000  Level Jacksonville Center
Sat 11:19:50 AM 32.9586 -81.3403 34° Northeast 217 250 15,000  Level Jacksonville Center
Sat 11:20:51 AM 33.0081 -81.2947 38° Northeast 217 250 15,000  Level Jacksonville Center
Sat 11:21:51 AM 33.0619 -81.2567 31° Northeast 217 250 15,000  Level Jacksonville Center
Sat 11:22:51 AM 33.1156 -81.2161 32° Northeast 217 250 15,000  Level Jacksonville Center
Sat 11:23:50 AM 33.1694 -81.1803 29° Northeast 217 250 15,000  Level Jacksonville Center
Sat 11:24:51 AM 33.2233 -81.1394 32° Northeast 217 250 15,000  Level Jacksonville Center
Sat 11:25:51 AM 33.2769 -81.1036 29° Northeast 217 250 15,000  Level Jacksonville Center
Sat 11:26:51 AM 33.3347 -81.0628 31° Northeast 222 255 15,000 252 Level Jacksonville Center
Sat 11:27:50 AM 33.3864 -81.0244 32° Northeast 222 255 15,500 500 Climbing Jacksonville Center
Sat 11:28:51 AM 33.4361 -80.9886 31° Northeast 217 250 16,000 500 Climbing Jacksonville Center
Sat 11:29:50 AM 33.4856 -80.9525 31° Northeast 211 243 16,500 450 Climbing Jacksonville Center
Sat 11:30:51 AM 33.5350 -80.9167 31° Northeast 205 236 16,900 248 Climbing Jacksonville Center
Sat 11:31:51 AM 33.5844 -80.8806 31° Northeast 205 236 17,000 50 Climbing Jacksonville Center
Sat 11:32:51 AM 33.6403 -80.8394 32° Northeast 210 242 17,000  Level Jacksonville Center
Sat 11:33:51 AM 33.6939 -80.8033 29° Northeast 215 247 17,000  Level Jacksonville Center
Sat 11:34:51 AM 33.7497 -80.7644 30° Northeast 215 247 17,000  Level Jacksonville Center
Sat 11:35:51 AM 33.8053 -80.7256 30° Northeast 225 259 17,000  Level Jacksonville Center
Sat 11:36:50 AM 33.8608 -80.6867 30° Northeast 220 253 17,000  Level Jacksonville Center
Sat 11:37:51 AM 33.9144 -80.6478 31° Northeast 220 253 17,000  Level Jacksonville Center
Sat 11:38:51 AM 33.9703 -80.6089 30° Northeast 220 253 17,000  Level Jacksonville Center
Sat 11:39:51 AM 34.0233 -80.5522 42° Northeast 220 253 17,000  Level Jacksonville Center
Sat 11:40:50 AM 34.0725 -80.5083 36° Northeast 220 253 17,000  Level Jacksonville Center
Sat 11:41:50 AM 34.1264 -80.4819 22° Northeast 208 239 17,000  Level Jacksonville Center
Sat 11:42:50 AM 34.1797 -80.4428 31° Northeast 208 239 17,000  Level Jacksonville Center
Sat 11:43:51 AM 34.2333 -80.4036 31° Northeast 213 245 17,000  Level Jacksonville Center
Sat 11:44:51 AM 34.2847 -80.3644 32° Northeast 213 245 17,000  Level Jacksonville Center
Sat 11:45:51 AM 34.3383 -80.3300 28° Northeast 213 245 17,000  Level Jacksonville Center
Sat 11:46:51 AM 34.3917 -80.2858 34° Northeast 213 245 17,000  Level Jacksonville Center
Sat 11:47:51 AM 34.4428 -80.2464 32° Northeast 213 245 17,000 35 Level Jacksonville Center
Sat 11:49:44 AM 34.5344 -80.1778 32° Northeast 217 250 17,100 34 Climbing Washington Center
Sat 11:50:45 AM 34.5947 -80.1333 31° Northeast 222 255 17,100  Level Washington Center
Sat 11:51:45 AM 34.6483 -80.0933 32° Northeast 222 255 17,100  Level Washington Center
Sat 11:52:43 AM 34.7000 -80.0506 34° Northeast 222 255 17,100  Level Washington Center
Sat 11:53:43 AM 34.7578 -80.0083 31° Northeast 222 255 17,100 -50 Level Washington Center
Sat 11:54:43 AM 34.8072 -79.9706 32° Northeast 222 255 17,000 -50 Descending Washington Center
Sat 11:55:44 AM 34.8672 -79.9256 32° Northeast 227 261 17,000  Level Washington Center
Sat 11:56:45 AM 34.9189 -79.8881 31° Northeast 227 261 17,000  Level Washington Center
Sat 11:57:43 AM 34.9789 -79.8403 33° Northeast 232 267 17,000  Level Washington Center
Sat 11:58:42 AM 35.0303 -79.8025 31° Northeast 237 273 17,000 50 Level Washington Center
Sat 11:59:43 AM 35.0906 -79.7550 33° Northeast 237 273 17,100  Climbing Washington Center
Sat 12:00:44 PM 35.1417 -79.7194 30° Northeast 237 273 17,000  Descending Washington Center
Sat 12:01:45 PM 35.1997 -79.6717 34° Northeast 237 273 17,100 50 Climbing Washington Center
Sat 12:02:45 PM 35.2489 -79.6358 31° Northeast 232 267 17,100  Level Washington Center
Sat 12:03:44 PM 35.3089 -79.5881 33° Northeast 232 267 17,100  Level Washington Center
Sat 12:04:44 PM 35.3603 -79.5525 29° Northeast 232 267 17,100  Level Washington Center
Sat 12:05:45 PM 35.4181 -79.5042 34° Northeast 232 267 17,100  Level Washington Center
Sat 12:06:43 PM 35.4675 -79.4658 32° Northeast 232 267 17,100  Level Washington Center
Sat 12:07:44 PM 35.5314 -79.4206 30° Northeast 232 267 17,100  Level Washington Center
Sat 12:08:44 PM 35.5853 -79.3719 36° Northeast 232 267 17,100  Level Washington Center
Sat 12:09:45 PM 35.6406 -79.3311 31° Northeast 237 273 17,100  Level Washington Center
Sat 12:10:45 PM 35.6964 -79.2878 32° Northeast 244 281 17,100  Level Washington Center
Sat 12:11:43 PM 35.7539 -79.2444 31° Northeast 244 281 17,100  Level Washington Center
Sat 12:12:44 PM 35.8094 -79.2008 32° Northeast 244 281 17,100  Level Washington Center
Sat 12:13:44 PM 35.8672 -79.1547 33° Northeast 239 275 17,100  Level Washington Center
Sat 12:14:44 PM 35.9247 -79.1139 30° Northeast 245 282 17,100  Level Washington Center
Sat 12:15:45 PM 35.9825 -79.0700 32° Northeast 245 282 17,100  Level Washington Center
Sat 12:16:45 PM 36.0400 -79.0264 32° Northeast 245 282 17,100  Level Washington Center
Sat 12:17:43 PM 36.0956 -78.9825 33° Northeast 240 276 17,100  Level Washington Center
Sat 12:18:44 PM 36.1447 -78.9411 34° Northeast 245 282 17,100  Level Washington Center
Sat 12:19:43 PM 36.2086 -78.8922 32° Northeast 245 282 17,100  Level Washington Center
Sat 12:20:43 PM 36.2597 -78.8531 32° Northeast 245 282 17,100  Level Washington Center
Sat 12:21:43 PM 36.3217 -78.8042 32° Northeast 245 282 17,100  Level Washington Center
Sat 12:22:44 PM 36.3792 -78.7600 32° Northeast 245 282 17,100  Level Washington Center
Sat 12:23:45 PM 36.4367 -78.7133 33° Northeast 245 282 17,100  Level Washington Center
Sat 12:24:45 PM 36.4964 -78.6692 31° Northeast 245 282 17,100  Level Washington Center
Sat 12:25:43 PM 36.5517 -78.6222 34° Northeast 245 282 17,100  Level Washington Center
Sat 12:26:44 PM 36.6092 -78.5806 30° Northeast 240 276 17,100  Level Washington Center
Sat 12:27:44 PM 36.6644 -78.5333 34° Northeast 240 276 17,100  Level Washington Center
Sat 12:28:43 PM 36.7200 -78.4836 36° Northeast 245 282 17,100  Level Washington Center
Sat 12:29:44 PM 36.7731 -78.4442 31° Northeast 245 282 17,100  Level Washington Center
Sat 12:30:45 PM 36.8306 -78.3969 33° Northeast 245 282 17,100  Level Washington Center
Sat 12:31:45 PM 36.8878 -78.3525 32° Northeast 245 282 17,100  Level Washington Center
Sat 12:32:45 PM 36.9453 -78.3050 33° Northeast 245 282 17,100  Level Washington Center
Sat 12:33:43 PM 37.0069 -78.2525 34° Northeast 245 282 17,100  Level Washington Center
Sat 12:34:43 PM 37.0642 -78.2078 32° Northeast 245 282 17,100  Level Washington Center
Sat 12:35:44 PM 37.1236 -78.1628 31° Northeast 245 282 17,100  Level Washington Center
Sat 12:36:43 PM 37.1725 -78.1175 36° Northeast 245 282 17,100  Level Washington Center
Sat 12:37:44 PM 37.2300 -78.0725 32° Northeast 245 282 17,100  Level Washington Center
Sat 12:38:44 PM 37.2892 -78.0247 33° Northeast 245 282 17,100  Level Washington Center
Sat 12:39:43 PM 37.3464 -77.9797 32° Northeast 240 276 17,100 -151 Level Washington Center
Sat 12:40:43 PM 37.4039 -77.9317 34° Northeast 240 276 16,800 -397 Descending Washington Center
Sat 12:41:44 PM 37.4675 -77.8786 33° Northeast 250 288 16,300 -595 Descending Washington Center
Sat 12:42:44 PM 37.5289 -77.8308 32° Northeast 255 293 15,600 -744 Descending Washington Center
Sat 12:43:45 PM 37.5964 -77.7883 27° Northeast 261 300 14,800 -857 Descending Washington Center
Sat 12:44:43 PM 37.6639 -77.7483 25° Northeast 261 300 13,900 -915 Descending Washington Center
Sat 12:45:43 PM 37.7311 -77.7108 24° Northeast 261 300 13,000 -950 Descending Washington Center
Sat 12:46:43 PM 37.7986 -77.6706 25° Northeast 261 300 12,000 -1,000 Descending Washington Center
Sat 12:47:43 PM 37.8681 -77.6278 26° Northeast 261 300 11,000 -1,000 Descending Washington Center
Sat 12:48:43 PM 37.9314 -77.5928 24° Northeast 261 300 10,000 -942 Descending Washington Center
Sat 12:49:44 PM 37.9967 -77.5547 25° Northeast 261 300 9,100 -1,021 Descending Washington Center
Sat 12:51:57 PM 38.1333 -77.4167 38° Northeast 265 305 6,700 -1,119 Descending Potomac TRACON
Sat 12:52:57 PM 38.1667 -77.3500 58° Northeast 238 274 5,500 -1,300 Descending Potomac TRACON
Sat 12:53:57 PM 38.2167 -77.3000 38° Northeast 220 253 4,100 -991 Descending Potomac TRACON
Sat 12:54:52 PM 38.2500 -77.2833 21° North 168 193 3,600 -545 Descending Potomac TRACON

Login

Don't have an account? Register now (free) for customized features, flight alerts, and more!